createdAt,value
2018-03-18T00:00:49.815Z,4.55
2018-03-18T00:03:19.109Z,3.12
2018-03-18T00:05:47.801Z,3.75
2018-03-18T00:08:17.302Z,3.50
2018-03-18T00:10:46.784Z,3.53
2018-03-18T00:13:15.533Z,4.10
2018-03-18T00:15:44.277Z,4.70
2018-03-18T00:18:12.977Z,4.07
2018-03-18T00:20:42.668Z,4.05
2018-03-18T00:23:11.410Z,4.00
2018-03-18T00:25:40.132Z,3.65
2018-03-18T00:28:08.831Z,4.43
2018-03-18T00:30:37.549Z,5.70
2018-03-18T00:33:07.027Z,4.85
2018-03-18T00:35:35.754Z,3.60
2018-03-18T00:38:04.459Z,4.25
2018-03-18T00:40:33.187Z,4.37
2018-03-18T00:43:01.877Z,3.45
2018-03-18T00:45:30.571Z,4.05
2018-03-18T00:47:59.302Z,3.78
2018-03-18T00:50:28.812Z,5.12
2018-03-18T00:52:57.668Z,3.47
2018-03-18T00:55:26.506Z,4.57
2018-03-18T00:57:55.487Z,3.42
2018-03-18T01:00:24.186Z,3.75
2018-03-18T01:02:53.268Z,3.90
2018-03-18T01:05:21.980Z,4.37
2018-03-18T01:07:52.051Z,4.87
2018-03-18T01:10:21.822Z,5.12
2018-03-18T01:12:50.573Z,4.32
2018-03-18T01:15:19.318Z,4.22
2018-03-18T01:17:48.148Z,5.40
2018-03-18T01:20:18.545Z,4.47
2018-03-18T01:22:48.043Z,5.22
2018-03-18T01:25:16.724Z,3.90
2018-03-18T01:27:45.450Z,4.82
2018-03-18T01:30:14.203Z,5.05
2018-03-18T01:32:43.145Z,5.20
2018-03-18T01:35:11.788Z,3.90
2018-03-18T01:37:40.505Z,4.40
2018-03-18T01:40:11.418Z,6.00
2018-03-18T01:42:40.141Z,5.95
2018-03-18T01:45:08.828Z,4.70
2018-03-18T01:47:37.616Z,6.00
2018-03-18T01:50:06.490Z,9.02
2018-03-18T01:52:36.350Z,6.12
2018-03-18T01:55:06.156Z,5.97
2018-03-18T01:57:35.088Z,7.30
2018-03-18T02:00:03.684Z,5.95
2018-03-18T02:02:32.403Z,5.45
2018-03-18T02:05:01.099Z,6.87
2018-03-18T02:07:29.795Z,5.95
2018-03-18T02:09:58.523Z,6.20
2018-03-18T02:12:27.236Z,5.60
2018-03-18T02:14:56.757Z,6.53
2018-03-18T02:17:25.509Z,8.40
2018-03-18T02:19:54.229Z,7.75
2018-03-18T02:22:22.771Z,6.50
2018-03-18T02:24:51.474Z,7.20
2018-03-18T02:27:20.206Z,6.55
2018-03-18T02:29:49.121Z,7.37
2018-03-18T02:32:17.839Z,7.60
2018-03-18T02:34:46.598Z,5.95
2018-03-18T02:37:15.348Z,6.93
2018-03-18T02:39:44.284Z,7.18
2018-03-18T02:42:13.027Z,6.93
2018-03-18T02:44:41.989Z,8.70
2018-03-18T02:47:10.744Z,6.87
2018-03-18T02:49:39.470Z,7.80
2018-03-18T02:52:08.183Z,6.18
2018-03-18T02:54:36.935Z,6.10
2018-03-18T02:57:05.672Z,5.65
2018-03-18T02:59:34.425Z,6.65
2018-03-18T03:02:03.202Z,6.50
2018-03-18T03:04:31.911Z,6.05
2018-03-18T03:07:01.414Z,5.07
2018-03-18T03:09:30.905Z,6.28
2018-03-18T03:11:59.654Z,7.40
2018-03-18T03:14:28.344Z,7.10
2018-03-18T03:16:57.310Z,9.57
2018-03-18T03:19:26.038Z,5.62
2018-03-18T03:21:55.004Z,6.07
2018-03-18T03:24:23.754Z,5.00
2018-03-18T03:26:52.605Z,6.20
2018-03-18T03:29:21.376Z,6.40
2018-03-18T03:31:50.131Z,7.20
2018-03-18T03:34:19.655Z,6.00
2018-03-18T03:36:48.637Z,8.02
2018-03-18T03:39:17.606Z,9.25
2018-03-18T03:41:46.555Z,13.68
2018-03-18T03:44:15.320Z,10.77
2018-03-18T03:46:44.807Z,7.40
2018-03-18T03:49:14.344Z,8.05
2018-03-18T03:51:43.068Z,8.05
2018-03-18T03:54:12.568Z,8.65
2018-03-18T03:56:41.513Z,9.48
2018-03-18T03:59:11.027Z,9.30
2018-03-18T04:01:39.776Z,9.80
2018-03-18T04:04:08.514Z,10.02
2018-03-18T04:06:37.283Z,10.32
2018-03-18T04:09:06.960Z,9.85
2018-03-18T04:11:35.694Z,10.40
2018-03-18T04:14:04.495Z,10.10
2018-03-18T04:16:33.439Z,10.23
2018-03-18T04:19:02.431Z,10.90
2018-03-18T04:21:31.187Z,11.52
2018-03-18T04:23:59.805Z,12.02
2018-03-18T04:26:29.639Z,11.68
2018-03-18T04:28:59.164Z,11.30
2018-03-18T04:31:28.131Z,13.27
2018-03-18T04:33:56.925Z,12.05
2018-03-18T04:36:25.837Z,13.75
2018-03-18T04:38:54.612Z,12.70
2018-03-18T04:41:23.492Z,12.85
2018-03-18T04:43:52.211Z,13.40
2018-03-18T04:46:21.704Z,11.55
2018-03-18T04:48:51.208Z,14.68
2018-03-18T04:51:20.936Z,14.95
2018-03-18T04:53:49.696Z,15.60
2018-03-18T04:56:19.475Z,14.45
2018-03-18T04:58:47.908Z,16.67
2018-03-18T05:01:17.655Z,16.67
2018-03-18T05:03:47.168Z,17.52
2018-03-18T05:06:15.921Z,17.62
2018-03-18T05:08:45.407Z,16.83
2018-03-18T05:11:15.109Z,16.12
2018-03-18T05:13:43.841Z,15.52
2018-03-18T05:16:12.903Z,21.33
2018-03-18T05:18:41.915Z,19.87
2018-03-18T05:21:10.888Z,15.80
2018-03-18T05:23:39.594Z,17.23
2018-03-18T05:26:09.083Z,19.75
2018-03-18T05:28:37.793Z,17.35
2018-03-18T05:31:06.577Z,16.00
2018-03-18T05:33:35.331Z,13.70
2018-03-18T05:36:04.244Z,15.13
2018-03-18T05:38:33.568Z,15.05
2018-03-18T05:41:02.302Z,14.45
2018-03-18T05:43:31.019Z,13.38
2018-03-18T05:45:59.726Z,13.70
2018-03-18T05:48:28.500Z,16.45
2018-03-18T05:50:57.367Z,15.75
2018-03-18T05:53:26.108Z,13.85
2018-03-18T05:55:54.847Z,16.58
2018-03-18T05:58:23.574Z,14.77
2018-03-18T06:00:52.363Z,16.77
2018-03-18T06:03:21.364Z,13.35
2018-03-18T06:05:50.355Z,14.70
2018-03-18T06:08:19.427Z,13.65
2018-03-18T06:10:48.231Z,17.55
2018-03-18T06:13:17.003Z,15.32
2018-03-18T06:15:46.736Z,16.37
2018-03-18T06:18:15.519Z,14.87
2018-03-18T06:20:44.241Z,14.05
2018-03-18T06:23:13.002Z,22.65
2018-03-18T06:25:41.743Z,16.75
2018-03-18T06:28:10.479Z,19.37
2018-03-18T06:30:39.188Z,20.65
2018-03-18T06:33:07.896Z,19.52
2018-03-18T06:35:36.641Z,22.20
2018-03-18T06:38:05.457Z,20.52
2018-03-18T06:40:34.396Z,20.50
2018-03-18T06:43:03.147Z,21.83
2018-03-18T06:45:31.871Z,22.62
2018-03-18T06:48:00.577Z,21.40
2018-03-18T06:50:30.068Z,21.25
2018-03-18T06:52:58.792Z,24.50
2018-03-18T06:55:27.500Z,28.87
2018-03-18T06:57:56.255Z,24.90
2018-03-18T07:00:24.982Z,22.70
2018-03-18T07:02:53.856Z,24.33
2018-03-18T07:05:22.611Z,21.90
2018-03-18T07:07:51.637Z,22.73
2018-03-18T07:10:20.329Z,20.02
2018-03-18T07:12:49.068Z,22.50
2018-03-18T07:15:17.787Z,20.85
2018-03-18T07:17:46.558Z,20.65
2018-03-18T07:20:16.053Z,21.15
2018-03-18T07:22:44.773Z,24.15
2018-03-18T07:25:13.486Z,23.60
2018-03-18T07:27:42.259Z,24.80
2018-03-18T07:30:11.722Z,20.05
2018-03-18T07:32:40.471Z,21.23
2018-03-18T07:35:09.209Z,15.73
2018-03-18T07:37:38.716Z,19.10
2018-03-18T07:40:07.397Z,22.67
2018-03-18T07:42:36.087Z,15.98
2018-03-18T07:45:04.467Z,21.55
2018-03-18T07:47:33.178Z,16.98
2018-03-18T07:50:01.874Z,17.62
2018-03-18T07:52:30.589Z,18.35
2018-03-18T07:54:59.459Z,15.73
2018-03-18T07:57:28.142Z,19.10
2018-03-18T07:59:56.838Z,16.25
2018-03-18T08:02:25.541Z,17.85
2018-03-18T08:04:54.248Z,17.05
2018-03-18T08:07:22.944Z,17.30
2018-03-18T08:09:51.701Z,20.30
2018-03-18T08:12:20.385Z,17.02
2018-03-18T08:14:49.070Z,15.40
2018-03-18T08:17:17.602Z,17.55
2018-03-18T08:19:46.289Z,16.67
2018-03-18T08:22:14.940Z,16.60
2018-03-18T08:24:43.633Z,14.45
2018-03-18T08:27:12.327Z,15.05
2018-03-18T08:29:41.045Z,16.92
2018-03-18T08:32:10.517Z,14.15
2018-03-18T08:34:39.281Z,13.18
2018-03-18T08:37:08.021Z,15.23
2018-03-18T08:39:36.702Z,13.60
2018-03-18T08:42:05.393Z,16.45
2018-03-18T08:44:34.093Z,16.27
2018-03-18T08:47:03.557Z,17.37
2018-03-18T08:49:32.261Z,15.65
2018-03-18T08:52:00.967Z,17.98
2018-03-18T08:54:29.656Z,16.75
2018-03-18T08:56:58.368Z,17.25
2018-03-18T08:59:27.468Z,17.70
2018-03-18T09:01:56.226Z,17.48
2018-03-18T09:04:24.900Z,15.55
2018-03-18T09:06:53.966Z,12.40
2018-03-18T09:09:22.820Z,17.95
2018-03-18T09:11:51.530Z,16.58
2018-03-18T09:14:20.337Z,22.65
2018-03-18T09:16:49.033Z,16.92
2018-03-18T09:19:17.766Z,14.85
2018-03-18T09:21:46.475Z,16.55
2018-03-18T09:24:15.151Z,16.12
2018-03-18T09:26:44.621Z,17.42
2018-03-18T09:29:13.317Z,17.15
2018-03-18T09:31:42.657Z,20.02
2018-03-18T09:34:11.454Z,18.48
2018-03-18T09:36:40.313Z,17.45
2018-03-18T09:39:09.031Z,17.90
2018-03-18T09:41:38.473Z,17.37
2018-03-18T09:44:07.013Z,18.55
2018-03-18T09:46:36.537Z,18.25
2018-03-18T09:49:05.241Z,17.15
2018-03-18T09:51:33.975Z,17.98
2018-03-18T09:54:02.779Z,20.55
2018-03-18T09:56:32.234Z,17.30
2018-03-18T09:59:01.009Z,20.10
2018-03-18T10:01:29.717Z,18.15
2018-03-18T10:03:58.449Z,18.95
2018-03-18T10:06:28.301Z,17.25
2018-03-18T10:08:57.001Z,17.60
2018-03-18T10:11:25.696Z,18.52
2018-03-18T10:13:54.399Z,18.40
2018-03-18T10:16:23.089Z,15.55
2018-03-18T10:18:52.717Z,13.82
2018-03-18T10:21:21.418Z,18.62
2018-03-18T10:23:50.897Z,18.80
2018-03-18T10:26:19.402Z,17.85
2018-03-18T10:28:48.837Z,17.52
2018-03-18T10:31:17.684Z,17.30
2018-03-18T10:33:46.612Z,20.35
2018-03-18T10:36:15.621Z,18.27
2018-03-18T10:38:44.562Z,18.85
2018-03-18T10:41:13.385Z,21.80
2018-03-18T10:43:43.282Z,19.37
2018-03-18T10:46:12.336Z,20.30
2018-03-18T10:48:41.841Z,18.25
2018-03-18T10:51:10.887Z,21.15
2018-03-18T10:53:39.862Z,20.25
2018-03-18T10:56:09.014Z,20.55
2018-03-18T10:58:37.978Z,18.50
2018-03-18T11:01:10.752Z,17.80
2018-03-18T11:03:40.123Z,19.42
2018-03-18T11:06:08.812Z,25.08
2018-03-18T11:08:37.530Z,22.13
2018-03-18T11:11:08.437Z,21.17
2018-03-18T11:13:37.101Z,19.67
2018-03-18T11:16:05.777Z,19.25
2018-03-18T11:18:35.410Z,22.70
2018-03-18T11:21:04.128Z,21.25
2018-03-18T11:23:33.408Z,24.20
2018-03-18T11:26:02.091Z,23.05
2018-03-18T11:28:30.824Z,24.65
2018-03-18T11:30:59.533Z,23.45
2018-03-18T11:33:28.205Z,20.73
2018-03-18T11:35:56.893Z,20.58
2018-03-18T11:38:25.583Z,23.75
2018-03-18T11:40:53.916Z,21.70
2018-03-18T11:43:22.647Z,20.42
2018-03-18T11:45:51.340Z,24.02
2018-03-18T11:48:20.030Z,20.08
2018-03-18T11:50:48.753Z,21.65
2018-03-18T11:53:17.522Z,20.75
2018-03-18T11:55:46.994Z,19.12
2018-03-18T11:58:15.894Z,20.27
2018-03-18T12:00:44.310Z,20.92
2018-03-18T12:03:12.989Z,22.48
2018-03-18T12:05:41.702Z,23.83
2018-03-18T12:08:09.787Z,18.48
2018-03-18T12:10:38.479Z,23.48
2018-03-18T12:13:07.254Z,20.90
2018-03-18T12:15:35.953Z,25.33
2018-03-18T12:18:03.985Z,28.10
2018-03-18T12:20:32.706Z,22.90
2018-03-18T12:23:01.401Z,22.55
2018-03-18T12:25:30.106Z,23.65
2018-03-18T12:27:59.574Z,21.65
2018-03-18T12:30:28.268Z,25.58
2018-03-18T12:32:56.973Z,23.62
2018-03-18T12:35:25.680Z,27.45
2018-03-18T12:37:54.388Z,21.98
2018-03-18T12:40:33.101Z,25.37
2018-03-18T12:43:12.888Z,25.45
2018-03-18T12:45:41.585Z,26.52
2018-03-18T12:48:10.328Z,25.83
2018-03-18T12:50:39.125Z,22.37
2018-03-18T12:53:07.863Z,19.05
2018-03-18T12:55:36.577Z,19.42
2018-03-18T12:58:04.980Z,23.45
2018-03-18T13:00:33.710Z,18.37
2018-03-18T13:03:02.526Z,18.30
2018-03-18T13:05:31.983Z,25.23
2018-03-18T13:08:00.669Z,20.80
2018-03-18T13:10:29.378Z,25.23
2018-03-18T13:12:58.209Z,19.58
2018-03-18T13:15:26.918Z,23.05
2018-03-18T13:17:55.681Z,19.75
2018-03-18T13:20:24.390Z,23.52
2018-03-18T13:22:53.230Z,18.70
2018-03-18T13:25:21.913Z,24.30
2018-03-18T13:27:50.643Z,20.80
2018-03-18T13:30:19.339Z,21.65
2018-03-18T13:32:48.026Z,20.00
2018-03-18T13:35:16.837Z,20.83
2018-03-18T13:37:45.749Z,22.23
